createdAt,value
2019-01-30T00:01:59.955Z,93569.79
2019-01-30T00:04:26.312Z,93567.17
2019-01-30T00:06:52.665Z,93567.22
2019-01-30T00:09:19.088Z,93558.81
2019-01-30T00:11:45.419Z,93563.00
2019-01-30T00:14:11.782Z,93563.00
2019-01-30T00:16:38.100Z,93558.05
2019-01-30T00:19:04.440Z,93563.19
2019-01-30T00:21:30.791Z,93561.51
2019-01-30T00:23:57.159Z,93564.08
2019-01-30T00:26:23.561Z,93559.28
2019-01-30T00:28:49.904Z,93556.06
2019-01-30T00:31:16.327Z,93552.68
2019-01-30T00:33:42.665Z,93555.09
2019-01-30T00:36:09.056Z,93552.81
2019-01-30T00:38:35.399Z,93555.19
2019-01-30T00:41:01.772Z,93553.56
2019-01-30T00:43:28.069Z,93546.31
2019-01-30T00:45:54.453Z,93538.79
2019-01-30T00:48:20.777Z,93539.61
2019-01-30T00:50:47.114Z,93542.64
2019-01-30T00:53:13.454Z,93528.68
2019-01-30T00:55:39.840Z,93521.58
2019-01-30T00:58:06.274Z,93516.26
2019-01-30T01:00:32.617Z,93511.25
2019-01-30T01:02:58.982Z,93516.63
2019-01-30T01:05:25.316Z,93517.36
2019-01-30T01:07:51.646Z,93519.58
2019-01-30T01:10:17.973Z,93520.00
2019-01-30T01:12:44.302Z,93517.67
2019-01-30T01:15:10.689Z,93513.22
2019-01-30T01:17:37.045Z,93512.77
2019-01-30T01:20:03.323Z,93504.47
2019-01-30T01:22:29.654Z,93501.27
2019-01-30T01:24:55.987Z,93499.80
2019-01-30T01:27:22.324Z,93493.19
2019-01-30T01:29:48.697Z,93478.86
2019-01-30T01:32:15.073Z,93480.12
2019-01-30T01:34:41.461Z,93476.50
2019-01-30T01:37:07.761Z,93480.28
2019-01-30T01:39:34.127Z,93475.70
2019-01-30T01:42:00.497Z,93477.67
2019-01-30T01:44:26.886Z,93478.27
2019-01-30T01:46:53.238Z,93475.82
2019-01-30T01:49:19.571Z,93482.17
2019-01-30T01:51:45.991Z,93476.52
2019-01-30T01:54:12.421Z,93479.90
2019-01-30T01:56:38.746Z,93477.03
2019-01-30T01:59:05.075Z,93475.16
2019-01-30T02:01:31.581Z,93464.20
2019-01-30T02:03:57.820Z,93474.34
2019-01-30T02:06:24.196Z,93469.89
2019-01-30T02:08:50.570Z,93467.22
2019-01-30T02:11:16.907Z,93456.72
2019-01-30T02:13:43.297Z,93450.77
2019-01-30T02:16:09.732Z,93447.69
2019-01-30T02:18:36.076Z,93446.92
2019-01-30T02:21:02.478Z,93439.38
2019-01-30T02:23:28.863Z,93432.32
2019-01-30T02:25:55.140Z,93425.83
2019-01-30T02:28:21.530Z,93430.37
2019-01-30T02:30:47.953Z,93434.70
2019-01-30T02:33:14.211Z,93431.80
2019-01-30T02:35:40.598Z,93428.02
2019-01-30T02:38:06.926Z,93428.83
2019-01-30T02:40:33.339Z,93431.57
2019-01-30T02:42:59.689Z,93436.41
2019-01-30T02:45:26.017Z,93442.20
2019-01-30T02:47:52.359Z,93434.02
2019-01-30T02:50:18.707Z,93420.34
2019-01-30T02:52:45.112Z,93418.25
2019-01-30T02:55:11.587Z,93424.54
2019-01-30T02:57:37.984Z,93424.54
2019-01-30T03:00:04.338Z,93416.86
2019-01-30T03:02:30.706Z,93406.23
2019-01-30T03:04:57.073Z,93400.32
2019-01-30T03:07:23.410Z,93404.82
2019-01-30T03:09:49.756Z,93410.16
2019-01-30T03:12:16.154Z,93418.66
2019-01-30T03:14:42.456Z,93423.80
2019-01-30T03:17:08.786Z,93424.30
2019-01-30T03:19:35.124Z,93427.86
2019-01-30T03:22:01.457Z,93433.51
2019-01-30T03:24:27.859Z,93439.94
2019-01-30T03:26:54.206Z,93438.14
2019-01-30T03:29:20.607Z,93446.20
2019-01-30T03:31:46.934Z,93439.63
2019-01-30T03:34:13.296Z,93432.53
2019-01-30T03:36:39.649Z,93433.67
2019-01-30T03:39:05.998Z,93433.03
2019-01-30T03:41:32.340Z,93429.98
2019-01-30T03:43:58.669Z,93436.11
2019-01-30T03:46:25.000Z,93441.13
2019-01-30T03:48:51.377Z,93440.98
2019-01-30T03:51:17.734Z,93434.72
2019-01-30T03:53:44.037Z,93431.70
2019-01-30T03:56:10.397Z,93423.68
2019-01-30T03:58:36.800Z,93419.34
2019-01-30T04:01:03.251Z,93421.30
2019-01-30T04:03:29.586Z,93422.11
2019-01-30T04:05:55.916Z,93417.33
2019-01-30T04:08:22.325Z,93417.02
2019-01-30T04:10:48.689Z,93413.02
2019-01-30T04:13:15.029Z,93426.38
2019-01-30T04:15:41.451Z,93426.36
2019-01-30T04:18:07.708Z,93423.31
2019-01-30T04:20:34.083Z,93411.42
2019-01-30T04:23:00.416Z,93405.65
2019-01-30T04:25:26.691Z,93411.80
2019-01-30T04:27:53.014Z,93407.13
2019-01-30T04:30:19.342Z,93411.65
2019-01-30T04:32:45.742Z,93411.80
2019-01-30T04:35:12.027Z,93417.13
2019-01-30T04:37:38.380Z,93425.64
2019-01-30T04:40:04.739Z,93427.76
2019-01-30T04:42:31.090Z,93440.17
2019-01-30T04:44:57.439Z,93442.58
2019-01-30T04:47:23.819Z,93437.92
2019-01-30T04:49:50.115Z,93439.08
2019-01-30T04:52:16.507Z,93442.28
2019-01-30T04:54:42.918Z,93438.42
2019-01-30T04:57:09.238Z,93439.39
2019-01-30T04:59:35.668Z,93436.48
2019-01-30T05:02:02.001Z,93442.47
2019-01-30T05:04:28.432Z,93438.44
2019-01-30T05:06:54.833Z,93442.48
2019-01-30T05:09:21.221Z,93444.08
2019-01-30T05:11:47.550Z,93439.73
2019-01-30T05:14:13.885Z,93435.08
2019-01-30T05:16:40.234Z,93430.27
2019-01-30T05:19:06.565Z,93436.21
2019-01-30T05:21:32.895Z,93437.20
2019-01-30T05:23:59.260Z,93442.98
2019-01-30T05:26:25.612Z,93445.09
2019-01-30T05:28:52.034Z,93456.03
2019-01-30T05:31:18.296Z,93462.19
2019-01-30T05:33:44.648Z,93464.91
2019-01-30T05:36:11.114Z,93465.71
2019-01-30T05:38:37.422Z,93465.57
2019-01-30T05:41:03.909Z,93455.13
2019-01-30T05:43:30.237Z,93443.53
2019-01-30T05:45:56.578Z,93445.45
2019-01-30T05:48:22.925Z,93452.07
2019-01-30T05:50:49.268Z,93448.37
2019-01-30T05:53:15.600Z,93442.42
2019-01-30T05:55:41.929Z,93435.47
2019-01-30T05:58:08.345Z,93432.91
2019-01-30T06:00:34.692Z,93426.62
2019-01-30T06:03:01.086Z,93425.98
2019-01-30T06:05:27.395Z,93424.06
2019-01-30T06:07:53.742Z,93422.28
2019-01-30T06:10:20.175Z,93418.72
2019-01-30T06:12:46.757Z,93416.80
2019-01-30T06:15:13.109Z,93419.89
2019-01-30T06:17:39.518Z,93412.81
2019-01-30T06:20:05.849Z,93405.72
2019-01-30T06:22:32.151Z,93412.47
2019-01-30T06:24:58.569Z,93424.57
2019-01-30T06:27:24.905Z,93430.84
2019-01-30T06:29:51.264Z,93434.87
2019-01-30T06:32:21.837Z,93439.88
2019-01-30T06:34:43.931Z,93434.38
2019-01-30T06:37:10.312Z,93436.97
2019-01-30T06:39:36.639Z,93428.75
2019-01-30T06:42:03.011Z,93424.73
2019-01-30T06:44:29.388Z,93430.05
2019-01-30T06:46:55.724Z,93435.22
2019-01-30T06:49:22.110Z,93440.20
2019-01-30T06:51:48.499Z,93443.25
2019-01-30T06:54:14.883Z,93440.52
2019-01-30T06:56:41.184Z,93433.61
2019-01-30T06:59:07.546Z,93437.63
2019-01-30T07:01:34.040Z,93441.69
2019-01-30T07:04:00.381Z,93440.88
2019-01-30T07:06:26.747Z,93445.66
2019-01-30T07:08:53.084Z,93442.80
2019-01-30T07:11:19.467Z,93439.70
2019-01-30T07:13:45.825Z,93432.81
2019-01-30T07:16:12.150Z,93433.78
2019-01-30T07:18:38.496Z,93441.98
2019-01-30T07:21:04.876Z,93441.02
2019-01-30T07:23:31.272Z,93431.17
2019-01-30T07:25:57.773Z,93431.19
2019-01-30T07:28:24.134Z,93433.45
2019-01-30T07:30:50.489Z,93436.33
2019-01-30T07:33:16.967Z,93433.93
2019-01-30T07:35:43.371Z,93435.82
2019-01-30T07:38:09.653Z,93409.11
2019-01-30T07:40:36.041Z,93434.08
2019-01-30T07:43:02.397Z,93430.66
2019-01-30T07:45:29.043Z,93435.82
2019-01-30T07:47:56.111Z,93435.16
2019-01-30T07:50:22.493Z,93426.45
2019-01-30T07:52:48.932Z,93433.53
2019-01-30T07:55:15.294Z,93434.67
2019-01-30T07:57:41.703Z,93431.58
2019-01-30T08:00:08.453Z,93434.97
2019-01-30T08:02:34.794Z,93435.78
2019-01-30T08:05:01.142Z,93437.03
2019-01-30T08:07:27.763Z,93439.64
2019-01-30T08:09:53.847Z,93443.67
2019-01-30T08:12:20.193Z,93445.63
2019-01-30T08:14:46.547Z,93447.05
2019-01-30T08:17:12.892Z,93447.05
2019-01-30T08:19:39.237Z,93445.06
2019-01-30T08:22:05.603Z,93443.45
2019-01-30T08:24:32.431Z,93443.59
2019-01-30T08:26:58.507Z,93451.19
2019-01-30T08:29:25.582Z,93445.55
2019-01-30T08:31:51.940Z,93443.11
2019-01-30T08:34:18.124Z,93453.28
2019-01-30T08:36:44.509Z,93451.48
2019-01-30T08:39:10.949Z,93445.69
2019-01-30T08:41:37.313Z,93458.80
2019-01-30T08:44:03.786Z,93464.52
2019-01-30T08:46:30.115Z,93463.91
2019-01-30T08:48:56.606Z,93461.31
2019-01-30T08:51:23.025Z,93463.04
2019-01-30T08:53:49.613Z,93466.31
2019-01-30T08:56:16.004Z,93474.91
2019-01-30T08:58:42.476Z,93481.36
2019-01-30T09:01:09.010Z,93478.58
2019-01-30T09:03:35.340Z,93485.66
2019-01-30T09:06:01.710Z,93476.58
2019-01-30T09:08:28.069Z,93475.45
2019-01-30T09:10:54.477Z,93474.52
2019-01-30T09:13:21.075Z,93471.12
2019-01-30T09:15:47.447Z,93474.17
2019-01-30T09:18:14.002Z,93471.84
2019-01-30T09:20:40.391Z,93469.28
2019-01-30T09:23:08.713Z,93468.19
2019-01-30T09:25:35.069Z,93469.16
2019-01-30T09:28:01.837Z,93458.69
2019-01-30T09:30:28.197Z,93463.16
2019-01-30T09:32:55.472Z,93456.57
2019-01-30T09:35:21.073Z,93458.87
2019-01-30T09:37:47.435Z,93451.27
2019-01-30T09:40:13.826Z,93448.20
2019-01-30T09:42:40.197Z,93452.70
2019-01-30T09:45:09.938Z,93456.24
2019-01-30T09:47:34.036Z,93448.81
2019-01-30T09:50:00.439Z,93449.70
2019-01-30T09:52:27.316Z,93445.98
2019-01-30T09:54:53.126Z,93446.70
2019-01-30T09:57:19.603Z,93439.52
2019-01-30T09:59:47.999Z,93433.53
2019-01-30T10:02:14.451Z,93427.73
2019-01-30T10:04:40.812Z,93418.85
2019-01-30T10:07:07.159Z,93421.02
2019-01-30T10:09:33.517Z,93423.00
2019-01-30T10:11:59.882Z,93418.84
2019-01-30T10:14:26.235Z,93415.64
2019-01-30T10:16:52.578Z,93412.88
2019-01-30T10:19:18.978Z,93410.16
2019-01-30T10:21:45.416Z,93409.33
2019-01-30T10:24:11.878Z,93410.48
2019-01-30T10:26:38.213Z,93406.60
2019-01-30T10:29:04.746Z,93410.77
2019-01-30T10:31:31.137Z,93415.77
2019-01-30T10:33:57.451Z,93410.95
2019-01-30T10:36:23.804Z,93401.36
2019-01-30T10:38:50.229Z,93398.12
2019-01-30T10:41:16.584Z,93401.42
2019-01-30T10:43:42.931Z,93398.38
2019-01-30T10:46:09.273Z,93402.67
2019-01-30T10:48:36.555Z,93396.91
2019-01-30T10:51:01.955Z,93403.81
2019-01-30T10:53:28.320Z,93399.34
2019-01-30T10:55:54.769Z,93399.96
2019-01-30T10:58:25.436Z,93400.22
2019-01-30T11:00:51.818Z,93398.98
2019-01-30T11:03:18.282Z,93394.91
2019-01-30T11:05:50.284Z,93400.76
2019-01-30T11:08:24.936Z,93399.47
2019-01-30T11:10:51.466Z,93392.68
2019-01-30T11:13:17.912Z,93394.92
2019-01-30T11:15:44.274Z,93392.48
2019-01-30T11:18:10.670Z,93394.97
2019-01-30T11:20:37.096Z,93396.00
2019-01-30T11:23:03.379Z,93395.79
2019-01-30T11:25:29.761Z,93395.88
2019-01-30T11:27:56.120Z,93394.11
2019-01-30T11:30:22.533Z,93392.34
2019-01-30T11:32:49.003Z,93386.48
2019-01-30T11:35:15.387Z,93389.37
2019-01-30T11:37:41.744Z,93387.41
2019-01-30T11:40:08.139Z,93383.08
2019-01-30T11:42:34.487Z,93389.37
2019-01-30T11:45:00.900Z,93385.14
2019-01-30T11:47:27.270Z,93379.17
2019-01-30T11:49:53.685Z,93381.91
2019-01-30T11:52:20.074Z,93376.28
2019-01-30T11:54:46.390Z,93376.13
2019-01-30T11:57:12.865Z,93368.85
2019-01-30T11:59:39.218Z,93368.01
2019-01-30T12:02:05.622Z,93365.22
2019-01-30T12:04:32.370Z,93361.09
2019-01-30T12:06:58.688Z,93360.97
2019-01-30T12:09:25.065Z,93356.26
2019-01-30T12:11:51.400Z,93353.20
2019-01-30T12:14:17.778Z,93352.45
2019-01-30T12:16:44.251Z,93350.19
2019-01-30T12:19:10.713Z,93347.63
2019-01-30T12:21:37.141Z,93353.10
2019-01-30T12:24:03.513Z,93348.65
2019-01-30T12:26:29.895Z,93349.20
2019-01-30T12:28:56.250Z,93348.41
2019-01-30T12:31:22.683Z,93349.03
2019-01-30T12:33:50.731Z,93348.73
2019-01-30T12:36:15.456Z,93348.08
2019-01-30T12:38:41.909Z,93353.70
2019-01-30T12:41:08.262Z,93347.08
2019-01-30T12:43:34.768Z,93345.79
2019-01-30T12:46:02.133Z,93349.01
2019-01-30T12:48:28.628Z,93341.40
2019-01-30T12:50:55.031Z,93346.27
2019-01-30T12:53:21.389Z,93338.98
2019-01-30T12:55:47.781Z,93343.86
2019-01-30T12:58:14.126Z,93341.02
2019-01-30T13:00:40.480Z,93345.08
2019-01-30T13:03:06.855Z,93347.48
2019-01-30T13:05:33.434Z,93343.62
2019-01-30T13:07:59.684Z,93345.50
2019-01-30T13:10:26.044Z,93347.25
2019-01-30T13:12:52.419Z,93348.88
2019-01-30T13:15:18.833Z,93345.77
2019-01-30T13:17:46.768Z,93339.69
2019-01-30T13:20:11.732Z,93344.03
2019-01-30T13:22:38.128Z,93343.38
2019-01-30T13:25:04.481Z,93344.20
2019-01-30T13:27:30.958Z,93345.36
2019-01-30T13:29:57.332Z,93342.28
2019-01-30T13:32:23.700Z,93347.39
2019-01-30T13:34:50.097Z,93344.53
2019-01-30T13:37:16.514Z,93349.03
2019-01-30T13:39:42.854Z,93344.55
2019-01-30T13:42:09.230Z,93344.73
2019-01-30T13:44:35.569Z,93339.61
2019-01-30T13:47:01.970Z,93341.45
2019-01-30T13:49:28.943Z,93338.80
2019-01-30T13:51:55.866Z,93338.14
2019-01-30T13:54:22.293Z,93324.30
2019-01-30T13:56:48.899Z,93333.63
2019-01-30T13:59:15.383Z,93337.80
2019-01-30T14:01:44.542Z,93343.86
2019-01-30T14:04:10.909Z,93346.79
2019-01-30T14:06:37.263Z,93340.94
2019-01-30T14:09:03.651Z,93335.88
2019-01-30T14:11:30.103Z,93338.92
2019-01-30T14:13:56.471Z,93340.78
2019-01-30T14:16:22.828Z,93340.07
2019-01-30T14:18:49.177Z,93340.81
2019-01-30T14:21:15.595Z,93341.16
2019-01-30T14:23:42.045Z,93339.14
2019-01-30T14:26:08.403Z,93336.63
2019-01-30T14:28:34.729Z,93344.29
2019-01-30T14:31:01.274Z,93343.62
2019-01-30T14:33:27.621Z,93340.90
2019-01-30T14:35:53.984Z,93340.72
2019-01-30T14:38:20.337Z,93341.67
2019-01-30T14:40:46.680Z,93343.00
2019-01-30T14:43:13.118Z,93341.97
2019-01-30T14:45:39.468Z,93314.53
2019-01-30T14:48:06.001Z,93340.86
2019-01-30T14:50:32.374Z,93344.43
2019-01-30T14:52:58.835Z,93339.67
2019-01-30T14:55:25.168Z,93335.25
2019-01-30T14:57:51.512Z,93343.66
2019-01-30T15:00:18.004Z,93338.31
2019-01-30T15:02:44.330Z,93338.17
2019-01-30T15:05:21.520Z,93337.69
2019-01-30T15:07:37.127Z,93345.25
2019-01-30T15:10:03.515Z,93344.43
2019-01-30T15:12:29.827Z,93343.34
2019-01-30T15:14:56.207Z,93348.50
2019-01-30T15:17:22.598Z,93348.16
2019-01-30T15:19:48.967Z,93348.38
2019-01-30T15:22:15.327Z,93347.08
2019-01-30T15:24:41.674Z,93353.73
2019-01-30T15:27:08.167Z,93357.09
2019-01-30T15:29:34.524Z,93352.73
2019-01-30T15:32:00.847Z,93356.19
2019-01-30T15:34:27.189Z,93354.91
2019-01-30T15:36:53.549Z,93357.77
2019-01-30T15:39:19.893Z,93354.68
2019-01-30T15:41:46.281Z,93362.44
2019-01-30T15:44:12.662Z,93355.23
2019-01-30T15:46:39.122Z,93362.25
2019-01-30T15:49:06.444Z,93359.86
2019-01-30T15:51:31.840Z,93361.98
2019-01-30T15:53:58.191Z,93359.11
2019-01-30T15:56:24.597Z,93361.69
2019-01-30T15:58:50.989Z,93363.78
2019-01-30T16:01:17.359Z,93366.69
2019-01-30T16:03:43.697Z,93365.71
2019-01-30T16:06:10.126Z,93371.03
2019-01-30T16:08:36.443Z,93371.22
2019-01-30T16:11:05.296Z,93376.70
2019-01-30T16:13:31.674Z,93376.52
2019-01-30T16:15:58.005Z,93374.10
2019-01-30T16:18:24.370Z,93377.49
2019-01-30T16:20:50.701Z,93377.17
2019-01-30T16:23:17.042Z,93373.30
2019-01-30T16:25:43.363Z,93377.98
2019-01-30T16:28:09.840Z,93378.17
2019-01-30T16:30:36.349Z,93379.28
2019-01-30T16:33:02.682Z,93382.05
2019-01-30T16:35:29.024Z,93386.55
2019-01-30T16:37:55.353Z,93384.48
2019-01-30T16:40:21.743Z,93373.84
2019-01-30T16:42:48.076Z,93385.30
2019-01-30T16:45:14.433Z,93391.56
2019-01-30T16:47:40.839Z,93393.01
2019-01-30T16:50:07.202Z,93393.20
2019-01-30T16:52:33.535Z,93390.47
2019-01-30T16:55:00.090Z,93403.38
2019-01-30T16:57:26.516Z,93404.00
2019-01-30T16:59:52.851Z,93403.23
2019-01-30T17:02:19.187Z,93399.20
2019-01-30T17:04:45.531Z,93406.44
2019-01-30T17:07:11.867Z,93408.06
2019-01-30T17:09:38.230Z,93406.62
2019-01-30T17:12:04.558Z,93404.67
2019-01-30T17:14:30.930Z,93407.44
2019-01-30T17:16:57.268Z,93409.34
2019-01-30T17:19:23.586Z,93411.16
2019-01-30T17:21:49.955Z,93412.89
2019-01-30T17:24:16.286Z,93418.23
2019-01-30T17:26:42.635Z,93414.52
2019-01-30T17:29:09.105Z,93421.48
2019-01-30T17:31:35.457Z,93416.17
2019-01-30T17:34:01.787Z,93421.96
2019-01-30T17:36:28.176Z,93426.02
2019-01-30T17:38:54.700Z,93427.12
2019-01-30T17:41:21.035Z,93430.98
2019-01-30T17:43:47.475Z,93426.97
2019-01-30T17:46:13.818Z,93431.32
2019-01-30T17:48:40.177Z,93435.52
2019-01-30T17:51:06.570Z,93438.43
2019-01-30T17:53:32.920Z,93436.00
2019-01-30T17:55:59.327Z,93438.43
2019-01-30T17:58:25.687Z,93438.61
2019-01-30T18:00:52.041Z,93445.21
2019-01-30T18:03:18.550Z,93441.97
2019-01-30T18:05:44.912Z,93443.11
2019-01-30T18:08:11.286Z,93442.48
2019-01-30T18:10:37.657Z,93451.66
2019-01-30T18:13:03.945Z,93448.11
2019-01-30T18:15:30.277Z,93456.33
2019-01-30T18:17:56.611Z,93455.70
2019-01-30T18:20:22.936Z,93460.68
2019-01-30T18:22:49.347Z,93456.33
2019-01-30T18:25:15.688Z,93462.77
2019-01-30T18:27:42.027Z,93459.41
2019-01-30T18:30:08.468Z,93464.23
2019-01-30T18:32:34.796Z,93465.33
2019-01-30T18:35:01.147Z,93462.92
2019-01-30T18:37:27.503Z,93465.16
2019-01-30T18:39:53.836Z,93466.46
2019-01-30T18:42:20.238Z,93471.11
2019-01-30T18:44:46.569Z,93468.56
2019-01-30T18:47:12.984Z,93472.89
2019-01-30T18:49:41.971Z,93473.36
2019-01-30T18:52:05.662Z,93473.86
2019-01-30T18:54:32.053Z,93474.48
2019-01-30T18:56:58.402Z,93480.28
2019-01-30T18:59:26.700Z,93473.81
2019-01-30T19:01:51.090Z,93479.14
2019-01-30T19:04:17.440Z,93488.78
2019-01-30T19:06:52.074Z,93489.29
2019-01-30T19:09:10.120Z,93488.95
2019-01-30T19:11:36.478Z,93490.23
2019-01-30T19:14:02.846Z,93500.05
2019-01-30T19:16:29.137Z,93500.51
2019-01-30T19:18:55.519Z,93498.60
2019-01-30T19:21:21.857Z,93503.73
2019-01-30T19:23:48.207Z,93501.44
2019-01-30T19:26:14.583Z,93508.55
2019-01-30T19:28:40.974Z,93507.55
2019-01-30T19:31:07.342Z,93511.25
2019-01-30T19:33:33.800Z,93510.10
2019-01-30T19:36:00.141Z,93516.38
2019-01-30T19:38:26.514Z,93520.08
2019-01-30T19:40:52.896Z,93523.13
2019-01-30T19:43:19.249Z,93521.03
2019-01-30T19:45:45.571Z,93523.91
2019-01-30T19:48:11.908Z,93526.97
2019-01-30T19:50:38.241Z,93525.83
2019-01-30T19:53:05.564Z,93524.20
2019-01-30T19:55:30.912Z,93531.45
2019-01-30T19:57:57.292Z,93527.76
2019-01-30T20:00:23.619Z,93536.74
2019-01-30T20:02:49.999Z,93537.22
2019-01-30T20:05:16.317Z,93539.16
2019-01-30T20:07:42.684Z,93542.84
2019-01-30T20:10:09.042Z,93542.98
2019-01-30T20:12:35.377Z,93548.16
2019-01-30T20:15:01.723Z,93549.73
2019-01-30T20:17:28.112Z,93551.97
2019-01-30T20:19:54.510Z,93556.14
2019-01-30T20:22:20.832Z,93552.75
2019-01-30T20:24:47.224Z,93551.33
2019-01-30T20:27:13.556Z,93535.17
2019-01-30T20:29:39.893Z,93549.39
2019-01-30T20:32:06.238Z,93552.58
2019-01-30T20:34:32.577Z,93558.84
2019-01-30T20:36:58.931Z,93552.58
2019-01-30T20:39:25.258Z,93552.24
2019-01-30T20:41:51.587Z,93545.44
2019-01-30T20:44:17.921Z,93559.29
2019-01-30T20:46:44.306Z,93558.17
2019-01-30T20:49:10.638Z,93555.26
2019-01-30T20:51:36.984Z,93556.55
2019-01-30T20:54:03.322Z,93558.00
2019-01-30T20:56:29.652Z,93557.33
2019-01-30T20:58:55.977Z,93556.69
2019-01-30T21:01:22.347Z,93557.16
2019-01-30T21:03:48.673Z,93554.25
2019-01-30T21:06:15.002Z,93560.17
2019-01-30T21:08:41.369Z,93559.39
2019-01-30T21:11:07.713Z,93559.22
2019-01-30T21:13:34.083Z,93551.47
2019-01-30T21:16:00.502Z,93559.52
2019-01-30T21:18:26.824Z,93555.67
2019-01-30T21:20:53.151Z,93564.16
2019-01-30T21:23:19.483Z,93559.05
2019-01-30T21:25:50.058Z,93562.27
2019-01-30T21:28:14.605Z,93561.45
2019-01-30T21:30:40.925Z,93560.78
2019-01-30T21:33:07.307Z,93553.39
2019-01-30T21:35:33.678Z,93552.08
2019-01-30T21:38:00.014Z,93554.98
2019-01-30T21:40:26.416Z,93563.45
2019-01-30T21:42:52.752Z,93562.64
2019-01-30T21:45:19.082Z,93558.47
2019-01-30T21:47:45.430Z,93562.60
2019-01-30T21:50:11.760Z,93564.40
2019-01-30T21:52:38.224Z,93564.09
2019-01-30T21:55:04.627Z,93560.06
2019-01-30T21:57:30.959Z,93561.89
2019-01-30T21:59:57.287Z,93557.73
2019-01-30T22:02:23.645Z,93562.64
2019-01-30T22:04:49.981Z,93554.61
2019-01-30T22:07:16.355Z,93554.75
2019-01-30T22:09:42.682Z,93553.90
2019-01-30T22:12:09.020Z,93561.91
2019-01-30T22:14:35.351Z,93558.52
2019-01-30T22:17:01.674Z,93561.58
2019-01-30T22:19:28.050Z,93563.63
2019-01-30T22:21:54.373Z,93556.39
2019-01-30T22:24:20.708Z,93559.42
2019-01-30T22:26:47.039Z,93550.90
2019-01-30T22:29:14.475Z,93547.52
2019-01-30T22:31:40.797Z,93552.31
2019-01-30T22:34:07.165Z,93553.77
2019-01-30T22:36:33.816Z,93549.40
2019-01-30T22:39:00.116Z,93544.25
2019-01-30T22:41:26.584Z,93539.72
2019-01-30T22:43:52.981Z,93538.90
2019-01-30T22:46:19.438Z,93533.59
2019-01-30T22:48:45.873Z,93533.58
2019-01-30T22:51:12.217Z,93536.46
2019-01-30T22:53:38.553Z,93534.36
2019-01-30T22:56:04.975Z,93537.09
2019-01-30T22:58:31.307Z,93537.44
2019-01-30T23:00:57.744Z,93533.36
2019-01-30T23:03:24.063Z,93538.20
2019-01-30T23:05:50.398Z,93532.55
2019-01-30T23:08:23.370Z,93521.45
2019-01-30T23:10:43.082Z,93512.59
2019-01-30T23:13:09.397Z,93522.27
2019-01-30T23:15:35.741Z,93526.42
2019-01-30T23:18:02.062Z,93533.33
2019-01-30T23:20:28.384Z,93531.86
2019-01-30T23:22:54.768Z,93534.09
2019-01-30T23:25:21.184Z,93534.39
2019-01-30T23:27:47.522Z,93530.37
2019-01-30T23:30:13.854Z,93525.52
2019-01-30T23:32:40.218Z,93514.13
2019-01-30T23:35:06.515Z,93519.57
2019-01-30T23:37:32.867Z,93523.42
2019-01-30T23:39:59.183Z,93526.00
2019-01-30T23:42:25.512Z,93528.09
2019-01-30T23:44:51.863Z,93519.39
2019-01-30T23:47:18.191Z,93515.84
2019-01-30T23:49:44.522Z,93517.59
2019-01-30T23:52:10.895Z,93520.50
2019-01-30T23:54:37.228Z,93521.61
2019-01-30T23:57:03.559Z,93512.14
2019-01-30T23:59:29.892Z,93510.34
